Kliftrans — PCDB — position and weather

sailwx.info

Track history (hours):
 
Tides and Currents Weather Stations Pressure Air Temp Water Temp Dewpoint Dewpoint Depression Visibility Wind Speed Wind Dir Waves Ship Positions

Kliftrans

Last reported at 2014-Sep-21 06:33 UTC. Time now 2014-Sep-22 06:19 UTC.
Position N 54°16' E 011°13'.

Length 88 m; draft 4.6 m.

Type: Cargo ship. MMSI: 245132000.

Date/timePositionNaut miles runAvg speedWind from/ knotsBaromVisibWave heightAir tempDewpointWater temp
2014-Sep-21 06:33N 54°16' E 011°13'8 7.5
2014-Sep-21 05:33N 54°22' E 011°21'4 3.6
2014-Sep-21 04:33N 54°25' E 011°22'6 5.7
2014-Sep-21 03:33N 54°31' E 011°20'5 4.9
2014-Sep-21 02:33N 54°34' E 011°14'6 5.6
2014-Sep-21 01:33N 54°35' E 011°04'6 6.4
2014-Sep-21 00:33N 54°34' E 010°53'6 6.2
2014-Sep-20 23:33N 54°34' E 010°43'67 6.1
2014-Sep-20 12:33N 53°54' E 009°10'2 2.5
2014-Sep-20 11:33N 53°53' E 009°07'9 9.3
2014-Sep-20 10:33N 53°50' E 008°51'1010.3
2014-Sep-20 09:33N 53°57' E 008°38'1110.7
2014-Sep-20 08:33N 53°59' E 008°20'1110.8
2014-Sep-20 07:33N 53°58' E 008°02'1111.3
2014-Sep-20 06:33N 53°55' E 007°44'3511.3
2014-Sep-20 03:24N 53°48' E 006°45'1010.7
2014-Sep-20 02:30N 53°45' E 006°29'1010.2
2014-Sep-20 01:31N 53°43' E 006°13'9 9.7
2014-Sep-20 00:33N 53°40' E 005°57'9 9.5
2014-Sep-19 23:33N 53°37' E 005°43'9 9.2
2014-Sep-19 22:33N 53°33' E 005°28'9 9.0
2014-Sep-19 21:33N 53°30' E 005°14'9 9.0
2014-Sep-19 20:33N 53°27' E 004°60'9 9.4
2014-Sep-19 19:33N 53°24' E 004°45'9 9.2
2014-Sep-19 18:32N 53°16' E 004°37'10 9.8
2014-Sep-19 17:33N 53°07' E 004°29'1010.0
2014-Sep-19 16:33N 52°58' E 004°22'1010.2
2014-Sep-19 15:33N 52°49' E 004°13'1010.5
2014-Sep-19 14:33N 52°42' E 004°02'1110.8
2014-Sep-19 13:33N 52°34' E 003°49'1511.0
2014-Sep-19 12:14N 52°24' E 003°31'6310.8
2014-Sep-19 06:28N 51°36' E 002°26'9 9.4
2014-Sep-19 05:33N 51°29' E 002°18'9 9.3
2014-Sep-19 04:33N 51°22' E 002°09'9 8.8
2014-Sep-19 03:33N 51°14' E 002°02'9 8.9
2014-Sep-19 02:33N 51°09' E 001°51'9 8.9
2014-Sep-19 01:30N 51°02' E 001°41'9 9.5
2014-Sep-19 00:33N 50°55' E 001°32'1010.3
2014-Sep-18 23:33N 50°46' E 001°23'2310.1
2014-Sep-18 21:15N 50°31' E 000°55'710.2
2014-Sep-18 20:33N 50°29' E 000°45'1010.3
2014-Sep-18 19:33N 50°26' E 000°29'1010.1
2014-Sep-18 18:33N 50°23' E 000°14'253 6.0
2014-Sep-17 00:28N 46°32' W 002°22'1010.5
2014-Sep-16 23:31N 46°26' W 002°11'1010.3
2014-Sep-16 22:33N 46°20' W 001°60'1010.1
2014-Sep-16 21:33N 46°14' W 001°48'1010.1
2014-Sep-16 20:33N 46°08' W 001°36'16 1.3
2014-Sep-16 08:18N 46°09' W 001°14'15 8.4
2014-Sep-16 06:30N 46°07' W 001°35'9 9.2
2014-Sep-16 05:33N 46°11' W 001°47'10 9.7
2014-Sep-16 04:33N 46°17' W 001°57'10 9.5
2014-Sep-16 03:33N 46°24' W 002°07'10 9.5
2014-Sep-16 02:33N 46°30' W 002°17'9 9.2
2014-Sep-16 01:33N 46°37' W 002°27'9 9.1
2014-Sep-16 00:33N 46°43' W 002°36'9 9.0
2014-Sep-15 23:31N 46°50' W 002°46'12 9.5
2014-Sep-15 22:13N 46°58' W 002°59'36 9.8
2014-Sep-15 18:32N 47°31' W 003°23'1010.7
2014-Sep-15 17:33N 47°41' W 003°22'3 3.2
2014-Sep-15 16:33N 47°44' W 003°21'0 0.0
2014-Sep-15 15:31N 47°44' W 003°21'0 0.0
2014-Sep-15 14:28N 47°44' W 003°21'0 0.0
2014-Sep-15 13:31N 47°44' W 003°21'0 0.0
2014-Sep-15 12:31N 47°44' W 003°21'0 0.0
2014-Sep-15 11:31N 47°44' W 003°21'0 0.0
2014-Sep-15 10:31N 47°44' W 003°21'0 0.0
2014-Sep-15 09:31N 47°44' W 003°21'0 0.0
2014-Sep-15 08:31N 47°44' W 003°21'0 0.0
2014-Sep-15 07:31N 47°44' W 003°21'0 0.0
2014-Sep-15 06:31N 47°44' W 003°21'0 0.0
2014-Sep-15 05:31N 47°44' W 003°21'0 0.0
2014-Sep-15 04:31N 47°44' W 003°21'0 0.0
2014-Sep-15 03:31N 47°44' W 003°21'0 0.0
2014-Sep-15 02:31N 47°44' W 003°21'0 0.0
2014-Sep-15 01:31N 47°44' W 003°21'0 0.0
2014-Sep-15 00:31N 47°44' W 003°21'0 0.0
2014-Sep-14 23:31N 47°44' W 003°21'0 0.0
2014-Sep-14 22:28N 47°44' W 003°21'0 0.0
2014-Sep-14 21:31N 47°44' W 003°21'0 0.0
2014-Sep-14 20:33N 47°44' W 003°21'0 0.0
2014-Sep-14 19:33N 47°44' W 003°21'0 0.0
2014-Sep-14 18:33N 47°44' W 003°21'0 0.0
2014-Sep-14 17:33N 47°44' W 003°21'0 0.0
2014-Sep-14 16:33N 47°44' W 003°21'0 0.0
2014-Sep-14 15:33N 47°44' W 003°21'0 0.0
2014-Sep-14 14:30N 47°44' W 003°21'0 0.0
2014-Sep-14 13:33N 47°44' W 003°21'0 0.0
2014-Sep-14 12:33N 47°44' W 003°21'0 0.0
2014-Sep-14 11:33N 47°44' W 003°21'0 0.0
2014-Sep-14 10:33N 47°44' W 003°21'0 0.0
2014-Sep-14 09:33N 47°44' W 003°21'0 0.3
2014-Sep-14 08:34N 47°44' W 003°22'7 6.8
2014-Sep-14 07:33N 47°40' W 003°30'57 3.9
2014-Sep-13 17:09N 47°48' W 004°53'2 3.6
2014-Sep-13 16:33N 47°50' W 004°56'263 7.6
2014-Sep-12 06:06N 50°35' E 000°17'812.0
2014-Sep-12 05:28N 50°37' E 000°28'1011.3
2014-Sep-12 04:33N 50°43' E 000°42'1110.4
2014-Sep-12 03:32N 50°49' E 000°56'19 8.3
2014-Sep-12 01:12N 51°01' E 001°20'5 7.6
2014-Sep-12 00:34N 51°04' E 001°26'9 9.3
2014-Sep-11 23:33N 51°10' E 001°37'1211.7
2014-Sep-11 22:33N 51°18' E 001°50'1312.7
2014-Sep-11 21:33N 51°28' E 002°03'2811.4
2014-Sep-11 19:07N 51°49' E 002°32'48 8.4
2014-Sep-11 13:28N 52°02' E 003°46'910.3
2014-Sep-11 12:34N 52°00' E 004°01'1211.8
2014-Sep-11 11:33N 51°54' E 004°17'1 0.6
2014-Sep-11 10:26N 51°53' E 004°16'0 0.0
2014-Sep-11 09:26N 51°53' E 004°16'0 0.0
2014-Sep-11 08:32N 51°53' E 004°16'0 0.0
2014-Sep-11 07:32N 51°53' E 004°16'  
Track history (hours):
 
Tides and Currents Weather Stations Pressure Air Temp Water Temp Dewpoint Dewpoint Depression Visibility Wind Speed Wind Dir Waves Ship Positions

Kliftrans

Last reported at 2014-Sep-21 06:33 UTC. Time now 2014-Sep-22 06:19 UTC.
Position N 54°16' E 011°13'.

Length 88 m; draft 4.6 m.

Type: Cargo ship. MMSI: 245132000.

Date/timePositionNaut miles runAvg speedWind from/ knotsBaromVisibWave heightAir tempDewpointWater temp
2014-Sep-21 06:33N 54°16' E 011°13'8 7.5
2014-Sep-21 05:33N 54°22' E 011°21'4 3.6
2014-Sep-21 04:33N 54°25' E 011°22'6 5.7
2014-Sep-21 03:33N 54°31' E 011°20'5 4.9
2014-Sep-21 02:33N 54°34' E 011°14'6 5.6
2014-Sep-21 01:33N 54°35' E 011°04'6 6.4
2014-Sep-21 00:33N 54°34' E 010°53'6 6.2
2014-Sep-20 23:33N 54°34' E 010°43'67 6.1
2014-Sep-20 12:33N 53°54' E 009°10'2 2.5
2014-Sep-20 11:33N 53°53' E 009°07'9 9.3
2014-Sep-20 10:33N 53°50' E 008°51'1010.3
2014-Sep-20 09:33N 53°57' E 008°38'1110.7
2014-Sep-20 08:33N 53°59' E 008°20'1110.8
2014-Sep-20 07:33N 53°58' E 008°02'1111.3
2014-Sep-20 06:33N 53°55' E 007°44'3511.3
2014-Sep-20 03:24N 53°48' E 006°45'1010.7
2014-Sep-20 02:30N 53°45' E 006°29'1010.2
2014-Sep-20 01:31N 53°43' E 006°13'9 9.7
2014-Sep-20 00:33N 53°40' E 005°57'9 9.5
2014-Sep-19 23:33N 53°37' E 005°43'9 9.2
2014-Sep-19 22:33N 53°33' E 005°28'9 9.0
2014-Sep-19 21:33N 53°30' E 005°14'9 9.0
2014-Sep-19 20:33N 53°27' E 004°60'9 9.4
2014-Sep-19 19:33N 53°24' E 004°45'9 9.2
2014-Sep-19 18:32N 53°16' E 004°37'10 9.8
2014-Sep-19 17:33N 53°07' E 004°29'1010.0
2014-Sep-19 16:33N 52°58' E 004°22'1010.2
2014-Sep-19 15:33N 52°49' E 004°13'1010.5
2014-Sep-19 14:33N 52°42' E 004°02'1110.8
2014-Sep-19 13:33N 52°34' E 003°49'1511.0
2014-Sep-19 12:14N 52°24' E 003°31'6310.8
2014-Sep-19 06:28N 51°36' E 002°26'9 9.4
2014-Sep-19 05:33N 51°29' E 002°18'9 9.3
2014-Sep-19 04:33N 51°22' E 002°09'9 8.8
2014-Sep-19 03:33N 51°14' E 002°02'9 8.9
2014-Sep-19 02:33N 51°09' E 001°51'9 8.9
2014-Sep-19 01:30N 51°02' E 001°41'9 9.5
2014-Sep-19 00:33N 50°55' E 001°32'1010.3
2014-Sep-18 23:33N 50°46' E 001°23'2310.1
2014-Sep-18 21:15N 50°31' E 000°55'710.2
2014-Sep-18 20:33N 50°29' E 000°45'1010.3
2014-Sep-18 19:33N 50°26' E 000°29'1010.1
2014-Sep-18 18:33N 50°23' E 000°14'253 6.0
2014-Sep-17 00:28N 46°32' W 002°22'1010.5
2014-Sep-16 23:31N 46°26' W 002°11'1010.3
2014-Sep-16 22:33N 46°20' W 001°60'1010.1
2014-Sep-16 21:33N 46°14' W 001°48'1010.1
2014-Sep-16 20:33N 46°08' W 001°36'16 1.3
2014-Sep-16 08:18N 46°09' W 001°14'15 8.4
2014-Sep-16 06:30N 46°07' W 001°35'9 9.2
2014-Sep-16 05:33N 46°11' W 001°47'10 9.7
2014-Sep-16 04:33N 46°17' W 001°57'10 9.5
2014-Sep-16 03:33N 46°24' W 002°07'10 9.5
2014-Sep-16 02:33N 46°30' W 002°17'9 9.2
2014-Sep-16 01:33N 46°37' W 002°27'9 9.1
2014-Sep-16 00:33N 46°43' W 002°36'9 9.0
2014-Sep-15 23:31N 46°50' W 002°46'12 9.5
2014-Sep-15 22:13N 46°58' W 002°59'36 9.8
2014-Sep-15 18:32N 47°31' W 003°23'1010.7
2014-Sep-15 17:33N 47°41' W 003°22'3 3.2
2014-Sep-15 16:33N 47°44' W 003°21'0 0.0
2014-Sep-15 15:31N 47°44' W 003°21'0 0.0
2014-Sep-15 14:28N 47°44' W 003°21'0 0.0
2014-Sep-15 13:31N 47°44' W 003°21'0 0.0
2014-Sep-15 12:31N 47°44' W 003°21'0 0.0
2014-Sep-15 11:31N 47°44' W 003°21'0 0.0
2014-Sep-15 10:31N 47°44' W 003°21'0 0.0
2014-Sep-15 09:31N 47°44' W 003°21'0 0.0
2014-Sep-15 08:31N 47°44' W 003°21'0 0.0
2014-Sep-15 07:31N 47°44' W 003°21'0 0.0
2014-Sep-15 06:31N 47°44' W 003°21'0 0.0
2014-Sep-15 05:31N 47°44' W 003°21'0 0.0
2014-Sep-15 04:31N 47°44' W 003°21'0 0.0
2014-Sep-15 03:31N 47°44' W 003°21'0 0.0
2014-Sep-15 02:31N 47°44' W 003°21'0 0.0
2014-Sep-15 01:31N 47°44' W 003°21'0 0.0
2014-Sep-15 00:31N 47°44' W 003°21'0 0.0
2014-Sep-14 23:31N 47°44' W 003°21'0 0.0
2014-Sep-14 22:28N 47°44' W 003°21'0 0.0
2014-Sep-14 21:31N 47°44' W 003°21'0 0.0
2014-Sep-14 20:33N 47°44' W 003°21'0 0.0
2014-Sep-14 19:33N 47°44' W 003°21'0 0.0
2014-Sep-14 18:33N 47°44' W 003°21'0 0.0
2014-Sep-14 17:33N 47°44' W 003°21'0 0.0
2014-Sep-14 16:33N 47°44' W 003°21'0 0.0
2014-Sep-14 15:33N 47°44' W 003°21'0 0.0
2014-Sep-14 14:30N 47°44' W 003°21'0 0.0
2014-Sep-14 13:33N 47°44' W 003°21'0 0.0
2014-Sep-14 12:33N 47°44' W 003°21'0 0.0
2014-Sep-14 11:33N 47°44' W 003°21'0 0.0
2014-Sep-14 10:33N 47°44' W 003°21'0 0.0
2014-Sep-14 09:33N 47°44' W 003°21'0 0.3
2014-Sep-14 08:34N 47°44' W 003°22'7 6.8
2014-Sep-14 07:33N 47°40' W 003°30'57 3.9
2014-Sep-13 17:09N 47°48' W 004°53'2 3.6
2014-Sep-13 16:33N 47°50' W 004°56'263 7.6
2014-Sep-12 06:06N 50°35' E 000°17'812.0
2014-Sep-12 05:28N 50°37' E 000°28'1011.3
2014-Sep-12 04:33N 50°43' E 000°42'1110.4
2014-Sep-12 03:32N 50°49' E 000°56'19 8.3
2014-Sep-12 01:12N 51°01' E 001°20'5 7.6
2014-Sep-12 00:34N 51°04' E 001°26'9 9.3
2014-Sep-11 23:33N 51°10' E 001°37'1211.7
2014-Sep-11 22:33N 51°18' E 001°50'1312.7
2014-Sep-11 21:33N 51°28' E 002°03'2811.4
2014-Sep-11 19:07N 51°49' E 002°32'48 8.4
2014-Sep-11 13:28N 52°02' E 003°46'910.3
2014-Sep-11 12:34N 52°00' E 004°01'1211.8
2014-Sep-11 11:33N 51°54' E 004°17'1 0.6
2014-Sep-11 10:26N 51°53' E 004°16'0 0.0
2014-Sep-11 09:26N 51°53' E 004°16'0 0.0
2014-Sep-11 08:32N 51°53' E 004°16'0 0.0
2014-Sep-11 07:32N 51°53' E 004°16'  

Dump ship's entire track history